Pagrindinis puslapis
METAR-TAF:

METAR-TAF

Oro uostai :

Vladikaukazas, Rusija

platuma: 43-12-18N, ilguma: 044-36-24E, Aukštis: 510 m

Dabartinis oras

Ataskaita buvo paskelbta 27 minutes, ne 01:30 UTC
Vėjas 2 kt iš Vakarų
Temperatūra 10°C
Drėgmė 100%
Slėgis 1018 hPa
Matomumas: 3900 m

METAR: URMO 010130Z AUTO 27001MPS 3900 // ///014/// 10/10 Q1018 RMK QFE720/0960

Laikas: 04:57 (01:57 UTC)

Prognozė

Ataskaita buvo paskelbta 11 valandos ir 57 minutes, ne 14:00 UTC
Prognozė galioja nuo 31 metu 15 UTC su 31 metu 21 UTC
Vėjas 6 kt iš Rytų su gūsio iki 16 kt
Matomumas 10 km arba daugiau
Su prošvaistėmis ne aukštis 2000 ft

TAF: URMO 311400Z 3115/3121 08003G08MPS 9999 BKN020

Orai ataskaitas ir orų prognozės (METAR, TAF).

turimą stotys yra geltonos ir raudonos taškus žemėlapyje.

Perkelti pele per norėdami pamatyti stoties vardą.

Tada spustelėkite, norėdami matyti oro stebėjimo ir prognozės.

Norėdami pakeisti žemėlapį: spustelėkite ant žalios mygtukų su juodo kryžiaus žemyn,; žalią mygtuką su brūkšneliu, jei norite nutolinti; arba žalių rodyklių gretimoms žemėlapius.


METAR-TAF: